Time;durP1;ratioP1;P1;durP2;ratioP2;P2;SDS_P1;SDS_P2;PMS_P1;PMS_P2;Temp;Humidity;BMP_temperature;BMP_pressure;BME280_temperature;BME280_humidity;BME280_pressure;Samples;Min_cycle;Max_cycle;Signal;HPM_P1;HPM_P2
2023/10/23 00:00:17;;;;;;;9.05;8.35;;;;;;;;;;4099684;29;20043;-68
2023/10/23 00:02:19;;;;;;;9.75;9.05;;;;;;;;;;4099383;28;20411;-68
2023/10/23 00:04:20;;;;;;;8.53;8.20;;;;;;;;;;4099645;29;20039;-67
2023/10/23 00:06:22;;;;;;;11.80;10.88;;;;;;;;;;4098443;29;20385;-67
2023/10/23 00:08:24;;;;;;;10.77;10.20;;;;;;;;;;4099471;29;20131;-67
2023/10/23 00:10:25;;;;;;;13.60;12.88;;;;;;;;;;4095303;29;20803;-67
2023/10/23 00:12:27;;;;;;;19.30;12.07;;;;;;;;;;4097864;28;20078;-67
2023/10/23 00:14:28;;;;;;;54.23;12.90;;;;;;;;;;4095081;29;20403;-69
2023/10/23 00:16:30;;;;;;;24.43;12.33;;;;;;;;;;4097839;29;20051;-67
2023/10/23 00:18:32;;;;;;;11.27;11.07;;;;;;;;;;4099881;29;20055;-67
2023/10/23 00:20:33;;;;;;;14.23;12.43;;;;;;;;;;4082365;29;20060;-67
2023/10/23 00:22:35;;;;;;;13.40;12.50;;;;;;;;;;4099610;29;20102;-67
2023/10/23 00:24:37;;;;;;;13.68;12.63;;;;;;;;;;4099380;29;20098;-67
2023/10/23 00:26:39;;;;;;;31.70;11.52;;;;;;;;;;4099353;29;20047;-67
2023/10/23 00:28:40;;;;;;;64.50;11.50;;;;;;;;;;4082288;29;20062;-67
2023/10/23 00:30:43;;;;;;;34.07;11.57;;;;;;;;;;4082193;29;20500;-67
2023/10/23 00:32:45;;;;;;;34.95;13.52;;;;;;;;;;4099414;29;20515;-66
2023/10/23 00:34:46;;;;;;;18.03;11.80;;;;;;;;;;4099155;29;20078;-67
2023/10/23 00:36:48;;;;;;;12.90;12.73;;;;;;;;;;4082185;29;20559;-67
2023/10/23 00:38:50;;;;;;;17.07;14.00;;;;;;;;;;4081972;29;20527;-67
2023/10/23 00:40:51;;;;;;;13.52;13.23;;;;;;;;;;4098969;29;20290;-68
2023/10/23 00:42:53;;;;;;;13.10;13.00;;;;;;;;;;4099146;29;20470;-67
2023/10/23 00:44:55;;;;;;;14.40;13.57;;;;;;;;;;4099264;29;20042;-67
2023/10/23 00:46:56;;;;;;;13.80;13.60;;;;;;;;;;4081851;29;20048;-67
2023/10/23 00:48:59;;;;;;;13.37;13.27;;;;;;;;;;4098995;29;20538;-67
2023/10/23 00:51:00;;;;;;;;;;;;;;;;;;4099828;29;20286;-67
2023/10/23 00:53:02;;;;;;;13.85;13.32;;;;;;;;;;4099172;29;19922;-67
2023/10/23 00:55:04;;;;;;;25.65;14.75;;;;;;;;;;4099037;29;20047;-68
2023/10/23 00:57:06;;;;;;;14.77;14.50;;;;;;;;;;4093804;29;20039;-67
2023/10/23 00:59:08;;;;;;;15.57;14.52;;;;;;;;;;4097978;29;20047;-68
2023/10/23 01:01:13;;;;;;;18.10;12.88;;;;;;;;;;4099466;29;20525;-68
2023/10/23 01:03:15;;;;;;;16.17;15.90;;;;;;;;;;4114946;23;20042;-61
2023/10/23 01:05:17;;;;;;;12.80;12.55;;;;;;;;;;4128220;28;20489;-61
2023/10/23 01:07:18;;;;;;;17.92;13.63;;;;;;;;;;4130685;28;20104;-61
2023/10/23 01:09:20;;;;;;;14.48;14.35;;;;;;;;;;4126230;28;20047;-61
2023/10/23 01:11:22;;;;;;;14.27;13.57;;;;;;;;;;4130929;28;20038;-61
2023/10/23 01:13:24;;;;;;;13.75;13.57;;;;;;;;;;4130926;28;20042;-61
2023/10/23 01:15:26;;;;;;;15.57;14.07;;;;;;;;;;4130665;28;20057;-62
2023/10/23 01:17:28;;;;;;;19.60;14.35;;;;;;;;;;4130951;28;20399;-61
2023/10/23 01:19:29;;;;;;;14.53;13.83;;;;;;;;;;4131046;28;20038;-61
2023/10/23 01:21:31;;;;;;;19.63;15.20;;;;;;;;;;4130757;28;20100;-61
2023/10/23 01:23:35;;;;;;;22.30;14.13;;;;;;;;;;4132453;28;20042;-61
2023/10/23 01:25:38;;;;;;;14.27;14.18;;;;;;;;;;4136252;28;20073;-61
2023/10/23 01:27:40;;;;;;;20.67;14.38;;;;;;;;;;4136331;28;20441;-61
2023/10/23 01:29:41;;;;;;;12.30;12.20;;;;;;;;;;4136292;28;20038;-62
2023/10/23 01:31:43;;;;;;;14.65;13.25;;;;;;;;;;4136270;28;20042;-61
2023/10/23 01:33:45;;;;;;;14.27;13.75;;;;;;;;;;4121846;28;20047;-62
2023/10/23 01:35:47;;;;;;;15.00;14.45;;;;;;;;;;4136226;28;20040;-61
2023/10/23 01:37:48;;;;;;;14.40;14.00;;;;;;;;;;4136162;28;20536;-61
2023/10/23 01:39:50;;;;;;;13.55;13.20;;;;;;;;;;4136060;28;20053;-60
2023/10/23 01:41:52;;;;;;;13.70;13.60;;;;;;;;;;4135868;28;20038;-61
2023/10/23 01:43:53;;;;;;;12.27;11.75;;;;;;;;;;4136070;28;20638;-61
2023/10/23 01:45:55;;;;;;;12.18;11.85;;;;;;;;;;4136199;28;20038;-61
2023/10/23 01:47:56;;;;;;;12.32;12.15;;;;;;;;;;4135878;28;20074;-62
2023/10/23 01:49:58;;;;;;;14.97;14.40;;;;;;;;;;4135916;28;20046;-61
2023/10/23 01:52:00;;;;;;;14.65;14.35;;;;;;;;;;4136079;28;20046;-62
2023/10/23 01:54:01;;;;;;;19.43;13.87;;;;;;;;;;4136027;28;20042;-61
2023/10/23 01:56:07;;;;;;;37.42;16.40;;;;;;;;;;4135979;28;20038;-61
2023/10/23 01:58:09;;;;;;;106.57;17.20;;;;;;;;;;4136077;28;20089;-61
2023/10/23 02:00:11;;;;;;;16.80;15.87;;;;;;;;;;4135543;28;20038;-61
2023/10/23 02:02:13;;;;;;;36.53;15.48;;;;;;;;;;4135688;28;20066;-62
2023/10/23 02:04:14;;;;;;;32.67;15.85;;;;;;;;;;4135615;28;20104;-61
2023/10/23 02:06:16;;;;;;;17.45;16.92;;;;;;;;;;4131660;28;20038;-61
2023/10/23 02:08:23;;;;;;;20.20;16.23;;;;;;;;;;4136797;28;20125;-61
2023/10/23 02:10:25;;;;;;;17.80;17.08;;;;;;;;;;4135128;28;20042;-62
2023/10/23 02:12:27;;;;;;;15.27;15.07;;;;;;;;;;4135796;28;20413;-61
2023/10/23 02:14:28;;;;;;;17.08;16.98;;;;;;;;;;4129944;28;20068;-62
2023/10/23 02:16:30;;;;;;;18.25;18.02;;;;;;;;;;4135378;28;20076;-62
2023/10/23 02:18:32;;;;;;;17.37;16.80;;;;;;;;;;4135801;28;20053;-61
2023/10/23 02:20:33;;;;;;;16.83;16.73;;;;;;;;;;4135890;28;20050;-61
2023/10/23 02:22:35;;;;;;;16.67;16.38;;;;;;;;;;4135892;28;20130;-62
2023/10/23 02:24:37;;;;;;;18.08;17.10;;;;;;;;;;4128021;28;20407;-62
2023/10/23 02:26:39;;;;;;;15.45;15.23;;;;;;;;;;4135671;28;20490;-62
2023/10/23 02:28:40;;;;;;;15.70;15.52;;;;;;;;;;4135698;28;20075;-62
2023/10/23 02:30:42;;;;;;;16.30;16.20;;;;;;;;;;4135504;28;20072;-61
2023/10/23 02:32:44;;;;;;;17.15;16.70;;;;;;;;;;4135700;28;20043;-61
2023/10/23 02:34:47;;;;;;;17.97;17.77;;;;;;;;;;4135007;28;20594;-62
2023/10/23 02:36:50;;;;;;;15.68;15.38;;;;;;;;;;4132946;28;20053;-61
2023/10/23 02:38:51;;;;;;;18.77;18.20;;;;;;;;;;4133146;28;20035;-61
2023/10/23 02:40:54;;;;;;;17.10;16.80;;;;;;;;;;4133375;28;20069;-61
2023/10/23 02:42:55;;;;;;;17.63;17.35;;;;;;;;;;4132830;28;20418;-61
2023/10/23 02:44:57;;;;;;;17.93;17.60;;;;;;;;;;4133000;28;20038;-62
2023/10/23 02:46:59;;;;;;;18.40;17.97;;;;;;;;;;4132790;28;20469;-61
2023/10/23 02:49:00;;;;;;;18.50;18.00;;;;;;;;;;4132891;28;20042;-61
2023/10/23 02:51:02;;;;;;;18.45;18.15;;;;;;;;;;4132950;28;20038;-61
2023/10/23 02:53:05;;;;;;;16.33;16.02;;;;;;;;;;4132951;28;20590;-62
2023/10/23 02:55:07;;;;;;;18.17;17.98;;;;;;;;;;4133115;28;20053;-62
2023/10/23 02:57:08;;;;;;;36.35;18.58;;;;;;;;;;4132686;28;20561;-62
2023/10/23 02:59:10;;;;;;;22.77;16.77;;;;;;;;;;4132760;28;20069;-61
2023/10/23 03:01:15;;;;;;;38.97;17.03;;;;;;;;;;4131976;28;20043;-61
2023/10/23 03:03:17;;;;;;;41.45;16.33;;;;;;;;;;4131658;28;20309;-62
2023/10/23 03:05:19;;;;;;;123.70;22.02;;;;;;;;;;4132870;28;20126;-61
2023/10/23 03:07:21;;;;;;;25.33;20.50;;;;;;;;;;4132892;28;20074;-62
2023/10/23 03:09:23;;;;;;;79.57;21.92;;;;;;;;;;4131926;28;20406;-61
2023/10/23 03:11:24;;;;;;;67.35;20.80;;;;;;;;;;4132705;28;20134;-61
2023/10/23 03:13:26;;;;;;;20.80;20.20;;;;;;;;;;4132607;28;20142;-61
2023/10/23 03:15:27;;;;;;;19.05;18.95;;;;;;;;;;4131332;28;20471;-61
2023/10/23 03:17:30;;;;;;;18.83;18.73;;;;;;;;;;4132797;28;20050;-61
2023/10/23 03:19:31;;;;;;;;;;;;;;;;;;4132996;28;20042;-61
2023/10/23 03:21:33;;;;;;;17.30;17.20;;;;;;;;;;4132455;28;19972;-62
2023/10/23 03:23:35;;;;;;;19.83;18.70;;;;;;;;;;4115096;28;20047;-61
2023/10/23 03:25:37;;;;;;;16.83;16.65;;;;;;;;;;4132149;28;20042;-61
2023/10/23 03:27:39;;;;;;;88.33;20.80;;;;;;;;;;4132355;28;20089;-62
2023/10/23 03:29:43;;;;;;;36.15;19.45;;;;;;;;;;4132318;28;20046;-62
2023/10/23 03:31:45;;;;;;;30.75;17.40;;;;;;;;;;4132209;28;20035;-61
2023/10/23 03:33:46;;;;;;;30.52;16.98;;;;;;;;;;4132422;28;20059;-61
2023/10/23 03:35:48;;;;;;;16.38;16.13;;;;;;;;;;4132629;28;20039;-62
2023/10/23 03:37:50;;;;;;;16.20;15.73;;;;;;;;;;4132201;28;20050;-61
2023/10/23 03:39:51;;;;;;;37.13;17.70;;;;;;;;;;4132154;28;20050;-61
2023/10/23 03:41:53;;;;;;;17.92;16.35;;;;;;;;;;4132122;28;20053;-61
2023/10/23 03:43:55;;;;;;;18.20;18.00;;;;;;;;;;4132124;28;20042;-62
2023/10/23 03:46:00;;;;;;;18.27;17.23;;;;;;;;;;4132113;28;20077;-61
2023/10/23 03:48:02;;;;;;;17.55;15.80;;;;;;;;;;4123387;28;20096;-61
2023/10/23 03:50:06;;;;;;;57.25;19.38;;;;;;;;;;4132252;28;20038;-61
2023/10/23 03:52:07;;;;;;;18.40;17.08;;;;;;;;;;4132082;28;20042;-61
2023/10/23 03:54:09;;;;;;;19.00;17.17;;;;;;;;;;4132033;28;20120;-62
2023/10/23 03:56:11;;;;;;;20.60;17.15;;;;;;;;;;4131825;28;20035;-62
2023/10/23 03:58:12;;;;;;;18.23;17.00;;;;;;;;;;4127042;28;20130;-62
2023/10/23 04:00:14;;;;;;;15.27;14.95;;;;;;;;;;4115177;28;20553;-62
2023/10/23 04:02:16;;;;;;;17.70;16.67;;;;;;;;;;4131665;28;20042;-61
2023/10/23 04:04:17;;;;;;;19.30;17.92;;;;;;;;;;4131518;28;20077;-61
2023/10/23 04:06:19;;;;;;;16.93;16.47;;;;;;;;;;4131940;28;20406;-61
2023/10/23 04:08:21;;;;;;;15.93;15.83;;;;;;;;;;4130409;28;20285;-61
2023/10/23 04:10:23;;;;;;;16.60;16.27;;;;;;;;;;4130262;28;20034;-61
2023/10/23 04:12:24;;;;;;;16.98;16.77;;;;;;;;;;4127438;28;20105;-62
2023/10/23 04:14:26;;;;;;;15.77;15.38;;;;;;;;;;4131443;28;20074;-62
2023/10/23 04:16:27;;;;;;;16.57;16.43;;;;;;;;;;4131665;28;20034;-61
2023/10/23 04:18:29;;;;;;;17.48;17.35;;;;;;;;;;4131292;28;20053;-62
2023/10/23 04:20:31;;;;;;;17.10;16.83;;;;;;;;;;4131522;28;20414;-61
2023/10/23 04:22:32;;;;;;;16.70;16.60;;;;;;;;;;4131414;28;20517;-61
2023/10/23 04:24:34;;;;;;;15.15;14.85;;;;;;;;;;4131587;28;20093;-61
2023/10/23 04:26:35;;;;;;;15.00;14.90;;;;;;;;;;4131553;28;20490;-60
2023/10/23 04:28:39;;;;;;;16.83;16.48;;;;;;;;;;4131500;28;20039;-61
2023/10/23 04:30:40;;;;;;;17.97;17.63;;;;;;;;;;4131211;28;20054;-61
2023/10/23 04:32:42;;;;;;;15.03;14.83;;;;;;;;;;4130026;28;20038;-62
2023/10/23 04:34:43;;;;;;;15.37;15.17;;;;;;;;;;4131413;28;20089;-61
2023/10/23 04:36:45;;;;;;;15.75;15.32;;;;;;;;;;4131317;28;20042;-62
2023/10/23 04:38:47;;;;;;;16.27;15.87;;;;;;;;;;4131164;28;20046;-61
2023/10/23 04:40:50;;;;;;;16.63;16.42;;;;;;;;;;4130452;28;20046;-61
2023/10/23 04:42:51;;;;;;;14.82;14.70;;;;;;;;;;4130843;28;20498;-61
2023/10/23 04:44:53;;;;;;;85.03;19.27;;;;;;;;;;4129549;28;20445;-61
2023/10/23 04:46:55;;;;;;;59.75;20.13;;;;;;;;;;4128047;28;20325;-61
2023/10/23 04:48:56;;;;;;;17.40;16.52;;;;;;;;;;4130890;28;20117;-61
2023/10/23 04:51:03;;;;;;;105.20;19.87;;;;;;;;;;4131254;28;20049;-61
2023/10/23 04:53:05;;;;;;;117.18;22.00;;;;;;;;;;4130969;28;20320;-62
2023/10/23 04:55:07;;;;;;;212.00;24.98;;;;;;;;;;4127157;28;20383;-62
2023/10/23 04:57:09;;;;;;;84.00;20.33;;;;;;;;;;4132518;28;20045;-63
2023/10/23 04:59:11;;;;;;;121.32;21.33;;;;;;;;;;4130669;28;20053;-62
2023/10/23 05:01:16;;;;;;;88.47;21.97;;;;;;;;;;4131278;28;20058;-61
2023/10/23 05:03:18;;;;;;;83.68;20.95;;;;;;;;;;4130539;28;20363;-60
2023/10/23 05:05:19;;;;;;;46.95;20.85;;;;;;;;;;4130908;28;20494;-61
2023/10/23 05:07:21;;;;;;;29.63;19.05;;;;;;;;;;4130935;28;20046;-60
2023/10/23 05:09:22;;;;;;;53.80;18.20;;;;;;;;;;4130662;28;20045;-62
2023/10/23 05:11:24;;;;;;;19.53;19.10;;;;;;;;;;4130760;28;20051;-61
2023/10/23 05:13:26;;;;;;;19.60;18.67;;;;;;;;;;4122173;28;20536;-62
2023/10/23 05:15:28;;;;;;;20.33;19.00;;;;;;;;;;4124919;28;20054;-62
2023/10/23 05:17:30;;;;;;;46.22;20.00;;;;;;;;;;4127288;28;20043;-61
2023/10/23 05:19:31;;;;;;;46.72;20.70;;;;;;;;;;4131105;28;20053;-61
2023/10/23 05:21:33;;;;;;;44.33;19.37;;;;;;;;;;4131149;28;20042;-60
2023/10/23 05:23:35;;;;;;;24.40;20.05;;;;;;;;;;4131262;28;20133;-66
2023/10/23 05:25:37;;;;;;;19.25;18.90;;;;;;;;;;4131084;28;20040;-65
2023/10/23 05:27:39;;;;;;;18.08;17.67;;;;;;;;;;4113968;28;20507;-66
2023/10/23 05:29:41;;;;;;;20.45;20.25;;;;;;;;;;4131420;28;20042;-66
2023/10/23 05:31:42;;;;;;;19.03;18.63;;;;;;;;;;4131121;28;20093;-65
2023/10/23 05:33:44;;;;;;;18.13;17.73;;;;;;;;;;4131170;28;20034;-65
2023/10/23 05:35:46;;;;;;;19.03;18.57;;;;;;;;;;4130957;28;20043;-66
2023/10/23 05:37:48;;;;;;;17.90;17.48;;;;;;;;;;4130601;28;20086;-65
2023/10/23 05:39:49;;;;;;;19.27;19.08;;;;;;;;;;4130231;28;20093;-66
2023/10/23 05:41:51;;;;;;;18.80;17.87;;;;;;;;;;4129406;28;20049;-65
2023/10/23 05:43:53;;;;;;;19.35;18.23;;;;;;;;;;4129456;28;20081;-65
2023/10/23 05:45:54;;;;;;;20.50;20.17;;;;;;;;;;4129441;28;20046;-65
2023/10/23 05:47:56;;;;;;;17.40;16.75;;;;;;;;;;4113538;28;20041;-65
2023/10/23 05:49:58;;;;;;;19.17;18.97;;;;;;;;;;4113239;28;20047;-65
2023/10/23 05:52:00;;;;;;;17.80;17.50;;;;;;;;;;4123863;28;20038;-65
2023/10/23 05:54:02;;;;;;;21.73;18.73;;;;;;;;;;4130965;28;20050;-65
2023/10/23 05:56:04;;;;;;;;;;;;;;;;;;4131626;28;20162;-66
2023/10/23 05:58:05;;;;;;;20.90;20.05;;;;;;;;;;4131046;28;19929;-65
2023/10/23 06:00:10;;;;;;;102.53;22.77;;;;;;;;;;4130944;28;20077;-65
2023/10/23 06:02:11;;;;;;;61.85;21.67;;;;;;;;;;4130945;28;20043;-66
2023/10/23 06:04:16;;;;;;;224.75;28.13;;;;;;;;;;4130551;28;20502;-65
2023/10/23 06:06:17;;;;;;;291.13;28.37;;;;;;;;;;4130830;28;20449;-65
2023/10/23 06:08:19;;;;;;;68.65;20.85;;;;;;;;;;4130770;28;20289;-65
2023/10/23 06:10:21;;;;;;;20.70;20.00;;;;;;;;;;4131336;28;20034;-65
2023/10/23 06:12:22;;;;;;;20.85;20.58;;;;;;;;;;4133972;28;20042;-65
2023/10/23 06:14:24;;;;;;;19.97;19.77;;;;;;;;;;4133808;28;20085;-65
2023/10/23 06:16:26;;;;;;;18.13;17.83;;;;;;;;;;4133998;28;20836;-65
2023/10/23 06:18:27;;;;;;;19.30;18.73;;;;;;;;;;4133906;28;20043;-65
2023/10/23 06:20:29;;;;;;;18.58;18.38;;;;;;;;;;4133853;28;20133;-66
2023/10/23 06:22:31;;;;;;;17.57;17.27;;;;;;;;;;4133925;28;20042;-65
2023/10/23 06:24:32;;;;;;;18.50;17.92;;;;;;;;;;4133755;28;20043;-65
2023/10/23 06:26:34;;;;;;;19.25;18.83;;;;;;;;;;4133793;28;20097;-65
2023/10/23 06:28:36;;;;;;;16.15;15.55;;;;;;;;;;4133913;28;20093;-66
2023/10/23 06:30:37;;;;;;;14.75;14.52;;;;;;;;;;4133486;28;20104;-65
2023/10/23 06:32:39;;;;;;;17.50;16.77;;;;;;;;;;4133560;28;20097;-66
2023/10/23 06:34:41;;;;;;;18.70;18.30;;;;;;;;;;4133390;28;20321;-65
2023/10/23 06:36:43;;;;;;;16.85;16.60;;;;;;;;;;4133590;28;20541;-65
2023/10/23 06:38:45;;;;;;;20.00;19.55;;;;;;;;;;4133215;28;20501;-65
2023/10/23 06:40:46;;;;;;;17.40;16.88;;;;;;;;;;4133724;28;20405;-65
2023/10/23 06:42:48;;;;;;;17.80;17.40;;;;;;;;;;4133723;28;20073;-65
2023/10/23 06:44:49;;;;;;;20.20;18.80;;;;;;;;;;4133457;28;20046;-65
2023/10/23 06:46:51;;;;;;;19.23;18.87;;;;;;;;;;4126027;28;20082;-65
2023/10/23 06:48:53;;;;;;;21.45;19.70;;;;;;;;;;4132270;28;20098;-66
2023/10/23 06:50:54;;;;;;;20.67;19.80;;;;;;;;;;4133327;28;20038;-65
2023/10/23 06:52:56;;;;;;;20.17;19.67;;;;;;;;;;4133371;28;20069;-65
2023/10/23 06:54:59;;;;;;;131.30;26.33;;;;;;;;;;4133339;28;20296;-65
2023/10/23 06:57:00;;;;;;;22.48;20.55;;;;;;;;;;4133358;28;20042;-65
2023/10/23 06:59:03;;;;;;;19.60;18.97;;;;;;;;;;4133179;28;20050;-66
2023/10/23 07:01:08;;;;;;;20.63;20.00;;;;;;;;;;4133209;28;20038;-65
2023/10/23 07:03:10;;;;;;;19.13;18.83;;;;;;;;;;4133036;28;20089;-65
2023/10/23 07:05:12;;;;;;;179.07;27.20;;;;;;;;;;4133383;28;20397;-65
2023/10/23 07:07:13;;;;;;;18.58;18.17;;;;;;;;;;4133137;28;20042;-65
2023/10/23 07:09:30;;;;;;;20.02;19.63;;;;;;;;;;4133061;28;20046;-65
2023/10/23 07:11:32;;;;;;;18.63;18.33;;;;;;;;;;4133058;28;20070;-65
2023/10/23 07:13:33;;;;;;;19.92;19.52;;;;;;;;;;4133006;28;20464;-65
2023/10/23 07:15:35;;;;;;;18.57;18.17;;;;;;;;;;4132946;28;20034;-65
2023/10/23 07:17:37;;;;;;;19.30;18.50;;;;;;;;;;4132880;28;20074;-66
2023/10/23 07:19:38;;;;;;;17.73;17.42;;;;;;;;;;4115724;28;20087;-65
2023/10/23 07:21:40;;;;;;;20.90;20.05;;;;;;;;;;4132613;28;20073;-65
2023/10/23 07:23:42;;;;;;;20.55;19.95;;;;;;;;;;4132814;28;20039;-65
2023/10/23 07:25:44;;;;;;;17.80;17.10;;;;;;;;;;4132876;28;20046;-65
2023/10/23 07:27:45;;;;;;;19.57;18.83;;;;;;;;;;4132818;28;20042;-65
2023/10/23 07:29:47;;;;;;;19.67;19.38;;;;;;;;;;4132633;28;20365;-65
2023/10/23 07:31:49;;;;;;;20.10;19.70;;;;;;;;;;4132769;28;20399;-65
2023/10/23 07:33:50;;;;;;;18.40;18.03;;;;;;;;;;4132694;28;20074;-65
2023/10/23 07:36:19;;;;;;;19.23;18.80;;;;;;;;;;4132651;28;20038;-65
2023/10/23 07:38:20;;;;;;;16.38;15.93;;;;;;;;;;4128389;28;20136;-65
2023/10/23 07:40:22;;;;;;;16.60;16.27;;;;;;;;;;4132421;28;20038;-65
2023/10/23 07:42:25;;;;;;;16.50;15.97;;;;;;;;;;4132641;28;20062;-65
2023/10/23 07:44:27;;;;;;;15.32;14.13;;;;;;;;;;4125812;28;20082;-65
2023/10/23 07:46:28;;;;;;;14.52;14.13;;;;;;;;;;4132280;28;20525;-64
2023/10/23 07:48:30;;;;;;;14.77;14.03;;;;;;;;;;4132475;28;20042;-65
2023/10/23 07:50:32;;;;;;;15.73;15.07;;;;;;;;;;4132404;28;20117;-65
2023/10/23 07:52:34;;;;;;;17.07;16.53;;;;;;;;;;4132465;28;20044;-65
2023/10/23 07:54:35;;;;;;;21.70;20.80;;;;;;;;;;4132282;28;20301;-65
2023/10/23 07:56:37;;;;;;;26.13;24.60;;;;;;;;;;4132596;28;20046;-65
2023/10/23 07:58:39;;;;;;;16.73;16.17;;;;;;;;;;4132561;28;20050;-65
2023/10/23 08:00:41;;;;;;;13.73;13.10;;;;;;;;;;4132262;28;20125;-65
2023/10/23 08:02:42;;;;;;;16.23;15.30;;;;;;;;;;4132432;28;20562;-65
2023/10/23 08:04:44;;;;;;;12.87;12.47;;;;;;;;;;4114674;28;20054;-65
2023/10/23 08:06:46;;;;;;;13.07;12.43;;;;;;;;;;4132125;28;20667;-65
2023/10/23 08:08:48;;;;;;;16.60;15.87;;;;;;;;;;4132121;28;20285;-65
2023/10/23 08:10:50;;;;;;;18.10;16.42;;;;;;;;;;4132107;28;20125;-65
2023/10/23 08:12:52;;;;;;;17.83;16.65;;;;;;;;;;4131968;28;20046;-64
2023/10/23 08:14:53;;;;;;;15.27;14.10;;;;;;;;;;4131948;28;20046;-65
2023/10/23 08:16:55;;;;;;;14.43;13.27;;;;;;;;;;4132114;28;20050;-65
2023/10/23 08:19:00;;;;;;;19.98;18.33;;;;;;;;;;4132016;28;20101;-65
2023/10/23 08:21:09;;;;;;;25.05;22.92;;;;;;;;;;4131828;28;20101;-65
2023/10/23 08:23:11;;;;;;;28.50;26.05;;;;;;;;;;4132097;28;20046;-65
2023/10/23 08:25:12;;;;;;;26.98;24.30;;;;;;;;;;4131857;28;20085;-64
2023/10/23 08:27:14;;;;;;;31.35;28.65;;;;;;;;;;4131796;28;20129;-64
2023/10/23 08:29:16;;;;;;;28.63;25.97;;;;;;;;;;4131821;28;20453;-65
2023/10/23 08:31:17;;;;;;;24.90;22.92;;;;;;;;;;4131936;28;20497;-64
2023/10/23 08:33:38;;;;;;;21.73;20.13;;;;;;;;;;4131180;28;20092;-65
2023/10/23 08:35:40;;;;;;;20.33;18.83;;;;;;;;;;4131715;28;20044;-65
2023/10/23 08:37:41;;;;;;;18.63;17.23;;;;;;;;;;4131661;28;20140;-65
2023/10/23 08:39:44;;;;;;;20.15;18.52;;;;;;;;;;4122780;28;20081;-65
2023/10/23 08:41:48;;;;;;;21.60;19.55;;;;;;;;;;4133545;28;20046;-65
2023/10/23 08:43:50;;;;;;;22.83;20.95;;;;;;;;;;4131708;28;20104;-65
2023/10/23 08:45:53;;;;;;;21.35;19.42;;;;;;;;;;4131627;28;20046;-65
2023/10/23 08:47:54;;;;;;;15.13;14.13;;;;;;;;;;4131307;28;20540;-65
2023/10/23 08:50:01;;;;;;;12.88;11.85;;;;;;;;;;4131587;28;20401;-65
2023/10/23 08:52:05;;;;;;;13.20;12.32;;;;;;;;;;4131647;28;20050;-64
2023/10/23 08:54:08;;;;;;;7.80;7.40;;;;;;;;;;4131419;28;20039;-65
2023/10/23 08:56:13;;;;;;;7.13;6.13;;;;;;;;;;4131411;28;20449;-65
2023/10/23 08:58:15;;;;;;;5.93;5.63;;;;;;;;;;4131430;28;20042;-65
2023/10/23 09:00:17;;;;;;;7.68;7.20;;;;;;;;;;4131376;28;20468;-65
2023/10/23 09:02:19;;;;;;;21.67;19.77;;;;;;;;;;4131499;28;20498;-65
2023/10/23 09:04:20;;;;;;;12.07;10.95;;;;;;;;;;4130989;28;20104;-65
2023/10/23 09:06:22;;;;;;;7.65;7.13;;;;;;;;;;4131270;28;20038;-65
2023/10/23 09:08:27;;;;;;;8.57;8.17;;;;;;;;;;4131521;28;20053;-65
2023/10/23 09:10:28;;;;;;;8.98;8.45;;;;;;;;;;4131432;28;20100;-65
2023/10/23 09:12:31;;;;;;;7.03;6.72;;;;;;;;;;4131154;28;20049;-65
2023/10/23 09:14:35;;;;;;;;;;;;;;;;;;4131600;28;20069;-64
2023/10/23 09:16:37;;;;;;;8.70;7.90;;;;;;;;;;4131514;28;20024;-65
2023/10/23 09:18:51;;;;;;;14.05;12.82;;;;;;;;;;4131468;28;20133;-65
2023/10/23 09:20:53;;;;;;;9.80;9.30;;;;;;;;;;4131252;28;20042;-65
2023/10/23 09:22:54;;;;;;;10.90;9.97;;;;;;;;;;4129543;28;20057;-65
2023/10/23 09:24:56;;;;;;;9.18;8.32;;;;;;;;;;4130961;28;20293;-65
2023/10/23 09:26:58;;;;;;;9.53;8.73;;;;;;;;;;4096315;29;20107;-65
2023/10/23 09:28:59;;;;;;;7.47;6.77;;;;;;;;;;4130042;28;20081;-65
2023/10/23 09:31:01;;;;;;;7.13;6.43;;;;;;;;;;4130529;28;20030;-65
2023/10/23 09:33:03;;;;;;;4.25;3.83;;;;;;;;;;4130511;28;20157;-65
2023/10/23 09:35:05;;;;;;;4.10;3.75;;;;;;;;;;4127722;28;20051;-65
2023/10/23 09:37:07;;;;;;;3.42;2.92;;;;;;;;;;4127238;28;20041;-65
2023/10/23 09:39:09;;;;;;;4.97;3.22;;;;;;;;;;4130425;28;20098;-65
2023/10/23 09:41:11;;;;;;;2.08;1.98;;;;;;;;;;4113803;28;20044;-66
2023/10/23 09:43:13;;;;;;;2.80;2.70;;;;;;;;;;4131005;28;20414;-65
2023/10/23 09:45:15;;;;;;;;;;;;;;;;;;4133362;28;20061;-65
2023/10/23 09:47:18;;;;;;;3.33;1.30;;;;;;;;;;4134121;28;19921;-66
2023/10/23 09:49:20;;;;;;;1.30;1.30;;;;;;;;;;4133257;28;20042;-65
2023/10/23 09:51:22;;;;;;;;;;;;;;;;;;4133959;28;20080;-65
2023/10/23 09:53:23;;;;;;;2.60;1.90;;;;;;;;;;4134179;28;20008;-65
2023/10/23 09:55:26;;;;;;;2.65;1.50;;;;;;;;;;4149474;28;20426;-65
2023/10/23 09:57:32;;;;;;;4.00;1.10;;;;;;;;;;4150514;28;20069;-65
2023/10/23 09:59:37;;;;;;;2.17;1.40;;;;;;;;;;4143982;28;20077;-65
2023/10/23 10:01:40;;;;;;;2.10;1.10;;;;;;;;;;4134147;28;20077;-65
2023/10/23 10:03:42;;;;;;;1.90;1.20;;;;;;;;;;4132255;28;20046;-65
2023/10/23 10:05:45;;;;;;;2.20;1.30;;;;;;;;;;4133970;28;20034;-65
2023/10/23 10:07:47;;;;;;;;;;;;;;;;;;4133332;28;20045;-65
2023/10/23 10:09:49;;;;;;;2.97;1.23;;;;;;;;;;4132433;28;19929;-65
2023/10/23 10:11:52;;;;;;;1.52;1.20;;;;;;;;;;4133887;28;20042;-65
2023/10/23 10:13:54;;;;;;;2.15;1.52;;;;;;;;;;4131533;28;20101;-65
2023/10/23 10:15:55;;;;;;;1.00;0.93;;;;;;;;;;4131065;28;20105;-65
2023/10/23 10:17:57;;;;;;;1.42;1.25;;;;;;;;;;4132262;28;20038;-65
2023/10/23 10:19:59;;;;;;;2.22;1.20;;;;;;;;;;4129796;28;20947;-64
2023/10/23 10:22:17;;;;;;;3.40;1.25;;;;;;;;;;4131011;28;20061;-65
2023/10/23 10:24:20;;;;;;;1.00;1.00;;;;;;;;;;4133549;28;20445;-65
2023/10/23 10:26:23;;;;;;;1.20;1.10;;;;;;;;;;4133776;28;20050;-65
2023/10/23 10:28:27;;;;;;;1.10;1.00;;;;;;;;;;4133123;28;20074;-65
2023/10/23 10:30:42;;;;;;;1.48;1.30;;;;;;;;;;4133583;28;20035;-66
2023/10/23 10:32:44;;;;;;;3.83;1.50;;;;;;;;;;4125899;28;20129;-64
2023/10/23 10:35:24;;;;;;;1.98;1.00;;;;;;;;;;4128013;28;20054;-66
2023/10/23 10:37:48;;;;;;;0.95;0.95;;;;;;;;;;4132655;28;20134;-65
2023/10/23 10:39:50;;;;;;;3.38;1.00;;;;;;;;;;4133290;28;20043;-65
2023/10/23 10:41:52;;;;;;;1.00;0.90;;;;;;;;;;4132915;28;20054;-65
2023/10/23 10:43:54;;;;;;;2.37;0.93;;;;;;;;;;4133600;28;20468;-66
2023/10/23 10:45:55;;;;;;;1.00;1.00;;;;;;;;;;4133445;28;20289;-66
2023/10/23 10:47:57;;;;;;;1.65;1.55;;;;;;;;;;4125536;28;20034;-65
2023/10/23 10:49:58;;;;;;;1.77;0.90;;;;;;;;;;4130211;28;20103;-66
2023/10/23 10:52:15;;;;;;;2.15;1.48;;;;;;;;;;4127924;28;20145;-65
2023/10/23 10:54:17;;;;;;;0.90;0.90;;;;;;;;;;4124596;28;20502;-65
2023/10/23 10:56:19;;;;;;;0.90;0.90;;;;;;;;;;4130419;28;20034;-65
2023/10/23 10:58:21;;;;;;;1.17;0.88;;;;;;;;;;4132580;28;20384;-65
2023/10/23 11:00:23;;;;;;;1.42;1.00;;;;;;;;;;4129203;28;20038;-65
2023/10/23 11:02:25;;;;;;;1.90;1.00;;;;;;;;;;4131581;28;20073;-65
2023/10/23 11:04:26;;;;;;;1.63;1.40;;;;;;;;;;4126104;28;20065;-65
2023/10/23 11:06:29;;;;;;;1.15;1.00;;;;;;;;;;4131989;28;20088;-65
2023/10/23 11:08:30;;;;;;;;;;;;;;;;;;4133503;28;20066;-65
2023/10/23 11:10:32;;;;;;;0.90;0.90;;;;;;;;;;4133064;28;20067;-65
2023/10/23 11:12:34;;;;;;;2.33;1.00;;;;;;;;;;4125653;28;20038;-66
2023/10/23 11:14:38;;;;;;;1.30;1.30;;;;;;;;;;4129212;28;20353;-65
2023/10/23 11:16:39;;;;;;;1.40;1.30;;;;;;;;;;4127042;28;20039;-66
2023/10/23 11:18:41;;;;;;;2.70;1.10;;;;;;;;;;4125547;28;20049;-65
2023/10/23 11:20:44;;;;;;;1.42;1.33;;;;;;;;;;4110634;28;20065;-65
2023/10/23 11:22:47;;;;;;;3.85;1.52;;;;;;;;;;4132381;28;20490;-65
2023/10/23 11:24:49;;;;;;;2.45;1.13;;;;;;;;;;4132265;28;20050;-65
2023/10/23 11:26:51;;;;;;;1.00;1.00;;;;;;;;;;4131638;28;20096;-65
2023/10/23 11:28:53;;;;;;;1.63;1.52;;;;;;;;;;4127976;28;20084;-64
2023/10/23 11:30:55;;;;;;;1.88;1.48;;;;;;;;;;4133590;28;20038;-64
2023/10/23 11:33:00;;;;;;;1.00;1.00;;;;;;;;;;4122784;28;20573;-64
2023/10/23 11:35:04;;;;;;;3.63;1.05;;;;;;;;;;4125849;28;20578;-64
2023/10/23 11:37:07;;;;;;;1.70;1.10;;;;;;;;;;4130535;28;20403;-65
2023/10/23 11:39:10;;;;;;;1.00;1.00;;;;;;;;;;4129591;28;20066;-64
2023/10/23 11:41:11;;;;;;;1.15;0.90;;;;;;;;;;4113325;28;20090;-65
2023/10/23 11:43:15;;;;;;;0.93;0.90;;;;;;;;;;4126442;28;20046;-65
2023/10/23 11:45:17;;;;;;;1.23;1.00;;;;;;;;;;4130256;28;20438;-62
2023/10/23 11:47:19;;;;;;;2.67;1.00;;;;;;;;;;4131182;28;20057;-62
2023/10/23 11:49:24;;;;;;;1.42;1.38;;;;;;;;;;4132087;28;20049;-62
2023/10/23 11:51:26;;;;;;;1.85;1.05;;;;;;;;;;4132114;28;20042;-62
2023/10/23 11:53:32;;;;;;;1.20;1.02;;;;;;;;;;4130571;28;20089;-62
2023/10/23 11:55:36;;;;;;;3.00;1.63;;;;;;;;;;4125914;28;20042;-62
2023/10/23 11:57:40;;;;;;;3.75;1.40;;;;;;;;;;4131828;28;20100;-63
2023/10/23 11:59:41;;;;;;;3.17;1.08;;;;;;;;;;4130721;28;20405;-63